sensor_id;sensor_type;location;lat;lon;timestamp;P1;durP1;ratioP1;P2;durP2;ratioP2
4434;SDS011;46552;52.150;8.428;2022-10-31T00:01:06;47.00;;;21.97;;
4434;SDS011;46552;52.150;8.428;2022-10-31T00:03:36;50.57;;;21.93;;
4434;SDS011;46552;52.150;8.428;2022-10-31T00:06:03;36.10;;;20.53;;
4434;SDS011;46552;52.150;8.428;2022-10-31T00:08:30;42.07;;;19.93;;
4434;SDS011;46552;52.150;8.428;2022-10-31T00:10:58;33.70;;;19.50;;
4434;SDS011;46552;52.150;8.428;2022-10-31T00:13:26;43.60;;;20.23;;
4434;SDS011;46552;52.150;8.428;2022-10-31T00:15:53;43.13;;;21.47;;
4434;SDS011;46552;52.150;8.428;2022-10-31T00:18:23;43.77;;;20.20;;
4434;SDS011;46552;52.150;8.428;2022-10-31T00:20:57;54.17;;;22.97;;
4434;SDS011;46552;52.150;8.428;2022-10-31T00:23:25;44.93;;;22.53;;
4434;SDS011;46552;52.150;8.428;2022-10-31T00:25:52;45.17;;;24.10;;
4434;SDS011;46552;52.150;8.428;2022-10-31T00:28:19;53.80;;;24.77;;
4434;SDS011;46552;52.150;8.428;2022-10-31T00:30:46;56.73;;;24.83;;
4434;SDS011;46552;52.150;8.428;2022-10-31T00:33:14;46.40;;;24.13;;
4434;SDS011;46552;52.150;8.428;2022-10-31T00:35:42;47.70;;;23.40;;
4434;SDS011;46552;52.150;8.428;2022-10-31T00:38:10;44.87;;;23.73;;
4434;SDS011;46552;52.150;8.428;2022-10-31T00:40:37;44.87;;;24.30;;
4434;SDS011;46552;52.150;8.428;2022-10-31T00:43:05;58.93;;;23.40;;
4434;SDS011;46552;52.150;8.428;2022-10-31T00:45:33;50.50;;;24.13;;
4434;SDS011;46552;52.150;8.428;2022-10-31T00:48:00;45.03;;;21.80;;
4434;SDS011;46552;52.150;8.428;2022-10-31T00:50:28;44.13;;;20.83;;
4434;SDS011;46552;52.150;8.428;2022-10-31T00:52:57;52.07;;;22.70;;
4434;SDS011;46552;52.150;8.428;2022-10-31T00:55:24;44.30;;;22.20;;
4434;SDS011;46552;52.150;8.428;2022-10-31T00:57:52;46.40;;;20.80;;
4434;SDS011;46552;52.150;8.428;2022-10-31T01:00:19;45.70;;;21.93;;
4434;SDS011;46552;52.150;8.428;2022-10-31T01:02:47;48.90;;;22.70;;
4434;SDS011;46552;52.150;8.428;2022-10-31T01:05:14;34.23;;;19.40;;
4434;SDS011;46552;52.150;8.428;2022-10-31T01:07:41;41.43;;;20.30;;
4434;SDS011;46552;52.150;8.428;2022-10-31T01:10:10;45.80;;;21.00;;
4434;SDS011;46552;52.150;8.428;2022-10-31T01:12:37;43.20;;;23.83;;
4434;SDS011;46552;52.150;8.428;2022-10-31T01:15:06;49.90;;;22.60;;
4434;SDS011;46552;52.150;8.428;2022-10-31T01:17:34;41.73;;;23.13;;
4434;SDS011;46552;52.150;8.428;2022-10-31T01:20:01;51.13;;;23.27;;
4434;SDS011;46552;52.150;8.428;2022-10-31T01:22:29;38.33;;;19.83;;
4434;SDS011;46552;52.150;8.428;2022-10-31T01:24:57;38.40;;;20.17;;
4434;SDS011;46552;52.150;8.428;2022-10-31T01:27:25;42.77;;;20.80;;
4434;SDS011;46552;52.150;8.428;2022-10-31T01:29:52;49.90;;;22.37;;
4434;SDS011;46552;52.150;8.428;2022-10-31T01:32:19;46.40;;;23.47;;
4434;SDS011;46552;52.150;8.428;2022-10-31T01:34:47;48.27;;;23.10;;
4434;SDS011;46552;52.150;8.428;2022-10-31T01:37:14;46.57;;;21.33;;
4434;SDS011;46552;52.150;8.428;2022-10-31T01:39:42;43.93;;;24.57;;
4434;SDS011;46552;52.150;8.428;2022-10-31T01:42:09;57.33;;;24.70;;
4434;SDS011;46552;52.150;8.428;2022-10-31T01:44:50;53.57;;;23.57;;
4434;SDS011;46552;52.150;8.428;2022-10-31T01:47:19;43.70;;;22.57;;
4434;SDS011;46552;52.150;8.428;2022-10-31T01:49:56;48.93;;;22.53;;
4434;SDS011;46552;52.150;8.428;2022-10-31T01:52:26;39.37;;;20.13;;
4434;SDS011;46552;52.150;8.428;2022-10-31T01:54:58;43.73;;;19.67;;
4434;SDS011;46552;52.150;8.428;2022-10-31T01:57:29;46.17;;;22.83;;
4434;SDS011;46552;52.150;8.428;2022-10-31T02:00:03;38.90;;;22.10;;
4434;SDS011;46552;52.150;8.428;2022-10-31T02:02:33;36.87;;;21.33;;
4434;SDS011;46552;52.150;8.428;2022-10-31T02:05:01;40.27;;;21.77;;
4434;SDS011;46552;52.150;8.428;2022-10-31T02:07:32;43.77;;;21.53;;
4434;SDS011;46552;52.150;8.428;2022-10-31T02:10:04;45.60;;;20.47;;
4434;SDS011;46552;52.150;8.428;2022-10-31T02:12:32;36.33;;;19.57;;
4434;SDS011;46552;52.150;8.428;2022-10-31T02:15:03;39.23;;;18.67;;
4434;SDS011;46552;52.150;8.428;2022-10-31T02:17:32;30.90;;;19.13;;
4434;SDS011;46552;52.150;8.428;2022-10-31T02:20:01;39.60;;;19.43;;
4434;SDS011;46552;52.150;8.428;2022-10-31T02:22:37;38.63;;;19.70;;
4434;SDS011;46552;52.150;8.428;2022-10-31T02:25:21;37.60;;;18.90;;
4434;SDS011;46552;52.150;8.428;2022-10-31T02:28:15;32.13;;;18.60;;
4434;SDS011;46552;52.150;8.428;2022-10-31T02:31:08;33.10;;;18.20;;
4434;SDS011;46552;52.150;8.428;2022-10-31T02:33:50;35.13;;;19.10;;
4434;SDS011;46552;52.150;8.428;2022-10-31T02:36:23;46.13;;;18.77;;
4434;SDS011;46552;52.150;8.428;2022-10-31T02:38:59;37.57;;;19.13;;
4434;SDS011;46552;52.150;8.428;2022-10-31T02:41:33;31.80;;;16.23;;
4434;SDS011;46552;52.150;8.428;2022-10-31T02:44:08;28.80;;;18.77;;
4434;SDS011;46552;52.150;8.428;2022-10-31T02:46:44;33.07;;;17.00;;
4434;SDS011;46552;52.150;8.428;2022-10-31T02:49:17;38.90;;;15.90;;
4434;SDS011;46552;52.150;8.428;2022-10-31T02:51:48;27.23;;;17.00;;
4434;SDS011;46552;52.150;8.428;2022-10-31T02:54:19;30.40;;;18.13;;
4434;SDS011;46552;52.150;8.428;2022-10-31T02:56:48;32.60;;;17.77;;
4434;SDS011;46552;52.150;8.428;2022-10-31T02:59:18;26.00;;;16.37;;
4434;SDS011;46552;52.150;8.428;2022-10-31T03:01:59;24.57;;;14.73;;
4434;SDS011;46552;52.150;8.428;2022-10-31T03:04:47;33.87;;;15.10;;
4434;SDS011;46552;52.150;8.428;2022-10-31T03:07:25;33.70;;;17.60;;
4434;SDS011;46552;52.150;8.428;2022-10-31T03:10:00;34.10;;;20.77;;
4434;SDS011;46552;52.150;8.428;2022-10-31T03:12:35;35.70;;;17.80;;
4434;SDS011;46552;52.150;8.428;2022-10-31T03:15:11;33.67;;;18.27;;
4434;SDS011;46552;52.150;8.428;2022-10-31T03:17:45;32.07;;;18.73;;
4434;SDS011;46552;52.150;8.428;2022-10-31T03:20:20;28.53;;;17.20;;
4434;SDS011;46552;52.150;8.428;2022-10-31T03:22:52;37.57;;;20.00;;
4434;SDS011;46552;52.150;8.428;2022-10-31T03:25:21;39.07;;;20.27;;
4434;SDS011;46552;52.150;8.428;2022-10-31T03:27:49;39.60;;;20.90;;
4434;SDS011;46552;52.150;8.428;2022-10-31T03:30:17;45.17;;;21.40;;
4434;SDS011;46552;52.150;8.428;2022-10-31T03:32:47;38.40;;;21.23;;
4434;SDS011;46552;52.150;8.428;2022-10-31T03:35:18;37.53;;;18.70;;
4434;SDS011;46552;52.150;8.428;2022-10-31T03:37:49;36.63;;;18.33;;
4434;SDS011;46552;52.150;8.428;2022-10-31T03:40:17;32.20;;;17.37;;
4434;SDS011;46552;52.150;8.428;2022-10-31T03:42:50;32.57;;;17.17;;
4434;SDS011;46552;52.150;8.428;2022-10-31T03:45:22;23.20;;;15.33;;
4434;SDS011;46552;52.150;8.428;2022-10-31T03:47:53;32.93;;;15.13;;
4434;SDS011;46552;52.150;8.428;2022-10-31T03:50:23;25.43;;;13.33;;
4434;SDS011;46552;52.150;8.428;2022-10-31T03:52:52;26.40;;;13.80;;
4434;SDS011;46552;52.150;8.428;2022-10-31T03:55:23;19.57;;;12.67;;
4434;SDS011;46552;52.150;8.428;2022-10-31T03:57:55;26.53;;;14.60;;
4434;SDS011;46552;52.150;8.428;2022-10-31T04:00:25;22.03;;;14.27;;
4434;SDS011;46552;52.150;8.428;2022-10-31T04:02:55;24.20;;;14.80;;
4434;SDS011;46552;52.150;8.428;2022-10-31T04:05:26;23.40;;;14.50;;
4434;SDS011;46552;52.150;8.428;2022-10-31T04:07:54;23.70;;;14.20;;
4434;SDS011;46552;52.150;8.428;2022-10-31T04:10:25;23.13;;;15.60;;
4434;SDS011;46552;52.150;8.428;2022-10-31T04:12:56;30.00;;;16.33;;
4434;SDS011;46552;52.150;8.428;2022-10-31T04:15:27;27.40;;;14.97;;
4434;SDS011;46552;52.150;8.428;2022-10-31T04:17:57;24.33;;;14.53;;
4434;SDS011;46552;52.150;8.428;2022-10-31T04:20:29;28.70;;;16.50;;
4434;SDS011;46552;52.150;8.428;2022-10-31T04:22:56;24.17;;;13.90;;
4434;SDS011;46552;52.150;8.428;2022-10-31T04:25:23;22.53;;;14.07;;
4434;SDS011;46552;52.150;8.428;2022-10-31T04:27:50;22.70;;;13.83;;
4434;SDS011;46552;52.150;8.428;2022-10-31T04:30:17;20.20;;;12.33;;
4434;SDS011;46552;52.150;8.428;2022-10-31T04:32:44;22.83;;;13.03;;
4434;SDS011;46552;52.150;8.428;2022-10-31T04:35:16;22.67;;;15.00;;
4434;SDS011;46552;52.150;8.428;2022-10-31T04:37:43;25.20;;;13.10;;
4434;SDS011;46552;52.150;8.428;2022-10-31T04:40:11;25.00;;;13.60;;
4434;SDS011;46552;52.150;8.428;2022-10-31T04:42:38;23.83;;;15.73;;
4434;SDS011;46552;52.150;8.428;2022-10-31T04:45:06;25.53;;;15.27;;
4434;SDS011;46552;52.150;8.428;2022-10-31T04:47:33;29.10;;;17.10;;
4434;SDS011;46552;52.150;8.428;2022-10-31T04:50:00;28.07;;;16.97;;
4434;SDS011;46552;52.150;8.428;2022-10-31T04:52:29;34.30;;;18.07;;
4434;SDS011;46552;52.150;8.428;2022-10-31T04:54:56;24.93;;;16.60;;
4434;SDS011;46552;52.150;8.428;2022-10-31T04:57:23;34.60;;;17.00;;
4434;SDS011;46552;52.150;8.428;2022-10-31T04:59:50;27.67;;;17.73;;
4434;SDS011;46552;52.150;8.428;2022-10-31T05:02:17;32.97;;;18.43;;
4434;SDS011;46552;52.150;8.428;2022-10-31T05:04:44;38.70;;;19.20;;
4434;SDS011;46552;52.150;8.428;2022-10-31T05:07:12;36.47;;;18.03;;
4434;SDS011;46552;52.150;8.428;2022-10-31T05:09:42;24.83;;;15.40;;
4434;SDS011;46552;52.150;8.428;2022-10-31T05:12:09;30.80;;;17.50;;
4434;SDS011;46552;52.150;8.428;2022-10-31T05:14:36;29.40;;;16.07;;
4434;SDS011;46552;52.150;8.428;2022-10-31T05:17:03;32.73;;;16.53;;
4434;SDS011;46552;52.150;8.428;2022-10-31T05:19:30;34.13;;;16.37;;
4434;SDS011;46552;52.150;8.428;2022-10-31T05:21:57;33.13;;;18.13;;
4434;SDS011;46552;52.150;8.428;2022-10-31T05:24:24;49.13;;;20.27;;
4434;SDS011;46552;52.150;8.428;2022-10-31T05:26:53;29.33;;;16.37;;
4434;SDS011;46552;52.150;8.428;2022-10-31T05:29:20;31.23;;;19.03;;
4434;SDS011;46552;52.150;8.428;2022-10-31T05:31:47;26.30;;;17.60;;
4434;SDS011;46552;52.150;8.428;2022-10-31T05:34:17;35.37;;;18.30;;
4434;SDS011;46552;52.150;8.428;2022-10-31T05:36:44;31.30;;;17.87;;
4434;SDS011;46552;52.150;8.428;2022-10-31T05:39:12;29.33;;;16.87;;
4434;SDS011;46552;52.150;8.428;2022-10-31T05:41:39;45.10;;;18.83;;
4434;SDS011;46552;52.150;8.428;2022-10-31T05:44:09;35.53;;;17.67;;
4434;SDS011;46552;52.150;8.428;2022-10-31T05:46:36;55.97;;;17.67;;
4434;SDS011;46552;52.150;8.428;2022-10-31T05:49:03;56.40;;;18.13;;
4434;SDS011;46552;52.150;8.428;2022-10-31T05:51:32;118.57;;;17.37;;
4434;SDS011;46552;52.150;8.428;2022-10-31T05:53:59;94.27;;;18.37;;
4434;SDS011;46552;52.150;8.428;2022-10-31T05:56:26;28.53;;;16.77;;
4434;SDS011;46552;52.150;8.428;2022-10-31T05:58:53;29.00;;;16.93;;
4434;SDS011;46552;52.150;8.428;2022-10-31T06:01:22;32.57;;;16.10;;
4434;SDS011;46552;52.150;8.428;2022-10-31T06:03:49;24.63;;;15.67;;
4434;SDS011;46552;52.150;8.428;2022-10-31T06:06:16;27.67;;;16.30;;
4434;SDS011;46552;52.150;8.428;2022-10-31T06:08:44;41.97;;;17.83;;
4434;SDS011;46552;52.150;8.428;2022-10-31T06:11:11;50.83;;;18.63;;
4434;SDS011;46552;52.150;8.428;2022-10-31T06:13:38;55.07;;;20.10;;
4434;SDS011;46552;52.150;8.428;2022-10-31T06:16:05;47.57;;;19.53;;
4434;SDS011;46552;52.150;8.428;2022-10-31T06:18:34;93.97;;;21.37;;
4434;SDS011;46552;52.150;8.428;2022-10-31T06:21:02;140.13;;;22.40;;
4434;SDS011;46552;52.150;8.428;2022-10-31T06:23:29;61.40;;;19.43;;
4434;SDS011;46552;52.150;8.428;2022-10-31T06:25:56;38.73;;;18.90;;
4434;SDS011;46552;52.150;8.428;2022-10-31T06:28:24;68.37;;;17.57;;
4434;SDS011;46552;52.150;8.428;2022-10-31T06:30:51;29.63;;;18.20;;
4434;SDS011;46552;52.150;8.428;2022-10-31T06:33:18;42.77;;;17.97;;
4434;SDS011;46552;52.150;8.428;2022-10-31T06:35:47;31.03;;;17.00;;
4434;SDS011;46552;52.150;8.428;2022-10-31T06:38:14;42.37;;;17.73;;
4434;SDS011;46552;52.150;8.428;2022-10-31T06:40:41;34.37;;;19.03;;
4434;SDS011;46552;52.150;8.428;2022-10-31T06:43:08;59.37;;;19.10;;
4434;SDS011;46552;52.150;8.428;2022-10-31T06:45:36;33.73;;;15.90;;
4434;SDS011;46552;52.150;8.428;2022-10-31T06:48:03;34.00;;;16.10;;
4434;SDS011;46552;52.150;8.428;2022-10-31T06:50:32;28.57;;;16.10;;
4434;SDS011;46552;52.150;8.428;2022-10-31T06:53:02;29.67;;;16.33;;
4434;SDS011;46552;52.150;8.428;2022-10-31T06:55:29;28.37;;;15.83;;
4434;SDS011;46552;52.150;8.428;2022-10-31T06:57:57;28.50;;;17.20;;
4434;SDS011;46552;52.150;8.428;2022-10-31T07:00:27;25.57;;;17.47;;
4434;SDS011;46552;52.150;8.428;2022-10-31T07:02:56;39.63;;;16.77;;
4434;SDS011;46552;52.150;8.428;2022-10-31T07:05:24;24.40;;;15.80;;
4434;SDS011;46552;52.150;8.428;2022-10-31T07:07:52;25.27;;;17.33;;
4434;SDS011;46552;52.150;8.428;2022-10-31T07:10:23;25.00;;;15.33;;
4434;SDS011;46552;52.150;8.428;2022-10-31T07:12:53;23.73;;;15.00;;
4434;SDS011;46552;52.150;8.428;2022-10-31T07:15:21;21.87;;;14.40;;
4434;SDS011;46552;52.150;8.428;2022-10-31T07:17:48;18.77;;;13.70;;
4434;SDS011;46552;52.150;8.428;2022-10-31T07:20:16;15.23;;;11.90;;
4434;SDS011;46552;52.150;8.428;2022-10-31T07:22:44;16.33;;;11.87;;
4434;SDS011;46552;52.150;8.428;2022-10-31T07:25:12;15.60;;;11.70;;
4434;SDS011;46552;52.150;8.428;2022-10-31T07:27:41;19.30;;;12.37;;
4434;SDS011;46552;52.150;8.428;2022-10-31T07:30:10;21.93;;;13.13;;
4434;SDS011;46552;52.150;8.428;2022-10-31T07:32:38;18.57;;;12.37;;
4434;SDS011;46552;52.150;8.428;2022-10-31T07:35:07;20.87;;;13.63;;
4434;SDS011;46552;52.150;8.428;2022-10-31T07:37:35;21.67;;;13.77;;
4434;SDS011;46552;52.150;8.428;2022-10-31T07:40:03;20.27;;;13.67;;
4434;SDS011;46552;52.150;8.428;2022-10-31T07:42:35;25.80;;;15.07;;
4434;SDS011;46552;52.150;8.428;2022-10-31T07:45:07;22.27;;;14.00;;
4434;SDS011;46552;52.150;8.428;2022-10-31T07:47:37;21.10;;;13.80;;
4434;SDS011;46552;52.150;8.428;2022-10-31T07:50:05;23.57;;;14.37;;
4434;SDS011;46552;52.150;8.428;2022-10-31T07:52:32;24.77;;;16.43;;
4434;SDS011;46552;52.150;8.428;2022-10-31T07:55:00;28.20;;;15.40;;
4434;SDS011;46552;52.150;8.428;2022-10-31T07:57:28;23.83;;;15.00;;
4434;SDS011;46552;52.150;8.428;2022-10-31T07:59:57;22.57;;;15.30;;
4434;SDS011;46552;52.150;8.428;2022-10-31T08:02:27;23.30;;;14.20;;
4434;SDS011;46552;52.150;8.428;2022-10-31T08:04:54;22.17;;;13.07;;
4434;SDS011;46552;52.150;8.428;2022-10-31T08:07:21;22.87;;;14.80;;
4434;SDS011;46552;52.150;8.428;2022-10-31T08:09:48;25.27;;;14.67;;
4434;SDS011;46552;52.150;8.428;2022-10-31T08:12:15;17.70;;;13.00;;
4434;SDS011;46552;52.150;8.428;2022-10-31T08:14:42;21.83;;;14.07;;
4434;SDS011;46552;52.150;8.428;2022-10-31T08:17:10;22.03;;;12.53;;
4434;SDS011;46552;52.150;8.428;2022-10-31T08:19:39;20.20;;;12.97;;
4434;SDS011;46552;52.150;8.428;2022-10-31T08:22:06;25.73;;;15.00;;
4434;SDS011;46552;52.150;8.428;2022-10-31T08:24:34;26.63;;;13.27;;
4434;SDS011;46552;52.150;8.428;2022-10-31T08:27:01;23.80;;;14.63;;
4434;SDS011;46552;52.150;8.428;2022-10-31T08:29:29;20.17;;;13.67;;
4434;SDS011;46552;52.150;8.428;2022-10-31T08:31:57;24.57;;;13.40;;
4434;SDS011;46552;52.150;8.428;2022-10-31T08:34:25;23.73;;;15.47;;
4434;SDS011;46552;52.150;8.428;2022-10-31T08:36:54;24.23;;;15.20;;
4434;SDS011;46552;52.150;8.428;2022-10-31T08:39:21;25.63;;;15.20;;
4434;SDS011;46552;52.150;8.428;2022-10-31T08:41:48;26.37;;;14.50;;
4434;SDS011;46552;52.150;8.428;2022-10-31T08:44:16;21.17;;;13.47;;
4434;SDS011;46552;52.150;8.428;2022-10-31T08:46:43;25.63;;;13.67;;
4434;SDS011;46552;52.150;8.428;2022-10-31T08:49:12;22.07;;;13.13;;
4434;SDS011;46552;52.150;8.428;2022-10-31T08:51:39;21.07;;;13.43;;
4434;SDS011;46552;52.150;8.428;2022-10-31T08:54:08;20.20;;;12.00;;
4434;SDS011;46552;52.150;8.428;2022-10-31T08:56:35;22.10;;;13.00;;
4434;SDS011;46552;52.150;8.428;2022-10-31T08:59:02;23.60;;;13.30;;
4434;SDS011;46552;52.150;8.428;2022-10-31T09:01:30;23.60;;;13.50;;
4434;SDS011;46552;52.150;8.428;2022-10-31T09:03:57;24.77;;;15.30;;
4434;SDS011;46552;52.150;8.428;2022-10-31T09:06:24;25.43;;;14.60;;
4434;SDS011;46552;52.150;8.428;2022-10-31T09:08:51;25.40;;;13.73;;
4434;SDS011;46552;52.150;8.428;2022-10-31T09:11:20;21.73;;;14.73;;
4434;SDS011;46552;52.150;8.428;2022-10-31T09:13:47;27.90;;;14.80;;
4434;SDS011;46552;52.150;8.428;2022-10-31T09:16:14;20.20;;;13.80;;
4434;SDS011;46552;52.150;8.428;2022-10-31T09:18:41;18.57;;;12.90;;
4434;SDS011;46552;52.150;8.428;2022-10-31T09:21:09;23.30;;;15.07;;
4434;SDS011;46552;52.150;8.428;2022-10-31T09:23:36;19.70;;;12.27;;
4434;SDS011;46552;52.150;8.428;2022-10-31T09:26:03;24.60;;;13.57;;
4434;SDS011;46552;52.150;8.428;2022-10-31T09:28:33;21.83;;;13.10;;
4434;SDS011;46552;52.150;8.428;2022-10-31T09:31:00;24.63;;;12.30;;
4434;SDS011;46552;52.150;8.428;2022-10-31T09:33:27;25.70;;;13.83;;
4434;SDS011;46552;52.150;8.428;2022-10-31T09:35:54;26.47;;;13.87;;
4434;SDS011;46552;52.150;8.428;2022-10-31T09:38:21;28.33;;;14.20;;
4434;SDS011;46552;52.150;8.428;2022-10-31T09:40:49;21.13;;;14.20;;
4434;SDS011;46552;52.150;8.428;2022-10-31T09:43:23;20.53;;;14.30;;
4434;SDS011;46552;52.150;8.428;2022-10-31T09:46:01;37.00;;;14.77;;
4434;SDS011;46552;52.150;8.428;2022-10-31T09:48:45;28.77;;;14.40;;
4434;SDS011;46552;52.150;8.428;2022-10-31T09:51:20;27.47;;;13.50;;
4434;SDS011;46552;52.150;8.428;2022-10-31T09:53:52;25.63;;;13.80;;
4434;SDS011;46552;52.150;8.428;2022-10-31T09:56:26;27.23;;;15.30;;
4434;SDS011;46552;52.150;8.428;2022-10-31T09:58:56;26.03;;;16.53;;
4434;SDS011;46552;52.150;8.428;2022-10-31T10:01:30;28.57;;;16.37;;
4434;SDS011;46552;52.150;8.428;2022-10-31T10:04:05;21.60;;;15.10;;
4434;SDS011;46552;52.150;8.428;2022-10-31T10:06:44;27.80;;;14.77;;
4434;SDS011;46552;52.150;8.428;2022-10-31T10:09:15;27.47;;;17.53;;
4434;SDS011;46552;52.150;8.428;2022-10-31T10:11:49;35.80;;;16.53;;
4434;SDS011;46552;52.150;8.428;2022-10-31T10:14:36;42.07;;;18.60;;
4434;SDS011;46552;52.150;8.428;2022-10-31T10:17:17;40.37;;;19.90;;
4434;SDS011;46552;52.150;8.428;2022-10-31T10:19:59;29.47;;;20.10;;
4434;SDS011;46552;52.150;8.428;2022-10-31T10:22:40;42.37;;;19.53;;
4434;SDS011;46552;52.150;8.428;2022-10-31T10:25:14;36.47;;;21.37;;
4434;SDS011;46552;52.150;8.428;2022-10-31T10:27:47;33.00;;;21.30;;
4434;SDS011;46552;52.150;8.428;2022-10-31T10:30:21;37.07;;;22.43;;
4434;SDS011;46552;52.150;8.428;2022-10-31T10:32:55;36.63;;;23.17;;
4434;SDS011;46552;52.150;8.428;2022-10-31T10:35:24;34.20;;;21.67;;
4434;SDS011;46552;52.150;8.428;2022-10-31T10:37:56;38.93;;;22.23;;
4434;SDS011;46552;52.150;8.428;2022-10-31T10:40:28;39.57;;;22.20;;
4434;SDS011;46552;52.150;8.428;2022-10-31T10:42:59;40.00;;;22.67;;
4434;SDS011;46552;52.150;8.428;2022-10-31T10:45:46;42.60;;;22.17;;
4434;SDS011;46552;52.150;8.428;2022-10-31T10:48:40;36.10;;;21.60;;
4434;SDS011;46552;52.150;8.428;2022-10-31T10:51:15;34.03;;;21.27;;
4434;SDS011;46552;52.150;8.428;2022-10-31T10:53:49;44.03;;;23.40;;
4434;SDS011;46552;52.150;8.428;2022-10-31T10:56:35;33.33;;;20.37;;
4434;SDS011;46552;52.150;8.428;2022-10-31T10:59:09;36.63;;;21.87;;
4434;SDS011;46552;52.150;8.428;2022-10-31T11:01:40;43.43;;;23.27;;
4434;SDS011;46552;52.150;8.428;2022-10-31T11:04:19;34.93;;;20.70;;
4434;SDS011;46552;52.150;8.428;2022-10-31T11:07:01;35.70;;;22.03;;
4434;SDS011;46552;52.150;8.428;2022-10-31T11:09:30;32.20;;;20.33;;
4434;SDS011;46552;52.150;8.428;2022-10-31T11:11:59;41.37;;;20.90;;
4434;SDS011;46552;52.150;8.428;2022-10-31T11:14:33;33.40;;;17.50;;
4434;SDS011;46552;52.150;8.428;2022-10-31T11:17:10;32.90;;;16.73;;
4434;SDS011;46552;52.150;8.428;2022-10-31T11:19:45;33.47;;;18.37;;
4434;SDS011;46552;52.150;8.428;2022-10-31T11:22:16;37.37;;;21.27;;
4434;SDS011;46552;52.150;8.428;2022-10-31T11:24:44;35.90;;;19.83;;
4434;SDS011;46552;52.150;8.428;2022-10-31T11:27:13;32.53;;;19.97;;
4434;SDS011;46552;52.150;8.428;2022-10-31T11:29:41;36.13;;;19.73;;
4434;SDS011;46552;52.150;8.428;2022-10-31T11:32:15;38.17;;;19.60;;
4434;SDS011;46552;52.150;8.428;2022-10-31T11:34:51;37.07;;;19.50;;
4434;SDS011;46552;52.150;8.428;2022-10-31T11:37:21;29.27;;;18.57;;
4434;SDS011;46552;52.150;8.428;2022-10-31T11:39:52;32.80;;;18.20;;
4434;SDS011;46552;52.150;8.428;2022-10-31T11:42:21;31.17;;;18.60;;
4434;SDS011;46552;52.150;8.428;2022-10-31T11:44:51;26.83;;;17.00;;
4434;SDS011;46552;52.150;8.428;2022-10-31T11:47:23;30.03;;;15.80;;
4434;SDS011;46552;52.150;8.428;2022-10-31T11:49:55;33.07;;;15.50;;
4434;SDS011;46552;52.150;8.428;2022-10-31T11:52:24;33.40;;;16.30;;
4434;SDS011;46552;52.150;8.428;2022-10-31T11:54:53;26.37;;;14.70;;
4434;SDS011;46552;52.150;8.428;2022-10-31T11:57:24;26.87;;;14.63;;
4434;SDS011;46552;52.150;8.428;2022-10-31T11:59:53;28.07;;;15.20;;
4434;SDS011;46552;52.150;8.428;2022-10-31T12:02:22;25.37;;;14.57;;
4434;SDS011;46552;52.150;8.428;2022-10-31T12:04:51;23.97;;;13.53;;
4434;SDS011;46552;52.150;8.428;2022-10-31T12:07:27;26.47;;;13.80;;
4434;SDS011;46552;52.150;8.428;2022-10-31T12:09:56;25.20;;;13.57;;
4434;SDS011;46552;52.150;8.428;2022-10-31T12:12:38;25.00;;;14.30;;
4434;SDS011;46552;52.150;8.428;2022-10-31T12:15:18;25.80;;;12.80;;
4434;SDS011;46552;52.150;8.428;2022-10-31T12:17:57;28.30;;;14.20;;
4434;SDS011;46552;52.150;8.428;2022-10-31T12:20:40;30.03;;;15.50;;
4434;SDS011;46552;52.150;8.428;2022-10-31T12:23:15;23.17;;;15.17;;
4434;SDS011;46552;52.150;8.428;2022-10-31T12:25:51;27.30;;;14.40;;
4434;SDS011;46552;52.150;8.428;2022-10-31T12:31:44;23.90;;;14.20;;
4434;SDS011;46552;52.150;8.428;2022-10-31T12:34:32;28.77;;;15.43;;
4434;SDS011;46552;52.150;8.428;2022-10-31T12:37:12;30.23;;;15.53;;
4434;SDS011;46552;52.150;8.428;2022-10-31T12:39:46;28.47;;;14.90;;
4434;SDS011;46552;52.150;8.428;2022-10-31T12:42:23;33.57;;;17.40;;
4434;SDS011;46552;52.150;8.428;2022-10-31T12:45:07;28.60;;;15.30;;
4434;SDS011;46552;52.150;8.428;2022-10-31T12:48:00;27.87;;;15.53;;
4434;SDS011;46552;52.150;8.428;2022-10-31T12:50:47;26.47;;;14.77;;
4434;SDS011;46552;52.150;8.428;2022-10-31T12:53:24;41.40;;;17.00;;
4434;SDS011;46552;52.150;8.428;2022-10-31T12:56:03;25.80;;;14.90;;
4434;SDS011;46552;52.150;8.428;2022-10-31T12:58:40;25.60;;;13.80;;
4434;SDS011;46552;52.150;8.428;2022-10-31T13:01:12;21.77;;;13.90;;
4434;SDS011;46552;52.150;8.428;2022-10-31T13:03:44;35.27;;;16.00;;
4434;SDS011;46552;52.150;8.428;2022-10-31T13:06:19;34.63;;;14.47;;
4434;SDS011;46552;52.150;8.428;2022-10-31T13:08:52;23.03;;;11.70;;
4434;SDS011;46552;52.150;8.428;2022-10-31T13:11:24;25.70;;;13.53;;
4434;SDS011;46552;52.150;8.428;2022-10-31T13:13:58;26.43;;;12.20;;
4434;SDS011;46552;52.150;8.428;2022-10-31T13:16:29;23.83;;;13.50;;
4434;SDS011;46552;52.150;8.428;2022-10-31T13:19:01;24.17;;;12.63;;
4434;SDS011;46552;52.150;8.428;2022-10-31T13:21:36;30.40;;;12.80;;
4434;SDS011;46552;52.150;8.428;2022-10-31T13:24:33;26.23;;;12.57;;
4434;SDS011;46552;52.150;8.428;2022-10-31T13:27:03;28.43;;;13.63;;
4434;SDS011;46552;52.150;8.428;2022-10-31T13:29:40;23.43;;;12.70;;
4434;SDS011;46552;52.150;8.428;2022-10-31T13:32:12;22.47;;;13.37;;
4434;SDS011;46552;52.150;8.428;2022-10-31T13:34:40;23.70;;;12.33;;
4434;SDS011;46552;52.150;8.428;2022-10-31T13:37:13;26.13;;;13.63;;
4434;SDS011;46552;52.150;8.428;2022-10-31T13:40:02;25.07;;;13.53;;
4434;SDS011;46552;52.150;8.428;2022-10-31T13:42:43;25.70;;;13.77;;
4434;SDS011;46552;52.150;8.428;2022-10-31T13:45:19;27.00;;;12.77;;
4434;SDS011;46552;52.150;8.428;2022-10-31T13:47:58;24.13;;;13.03;;
4434;SDS011;46552;52.150;8.428;2022-10-31T13:50:27;28.53;;;12.17;;
4434;SDS011;46552;52.150;8.428;2022-10-31T13:53:11;18.73;;;11.67;;
4434;SDS011;46552;52.150;8.428;2022-10-31T13:55:42;25.07;;;12.07;;
4434;SDS011;46552;52.150;8.428;2022-10-31T13:58:23;26.43;;;12.23;;
4434;SDS011;46552;52.150;8.428;2022-10-31T14:01:13;23.77;;;11.27;;
4434;SDS011;46552;52.150;8.428;2022-10-31T14:03:45;21.40;;;11.67;;
4434;SDS011;46552;52.150;8.428;2022-10-31T14:06:21;31.10;;;11.93;;
4434;SDS011;46552;52.150;8.428;2022-10-31T14:09:00;30.83;;;13.20;;
4434;SDS011;46552;52.150;8.428;2022-10-31T14:11:30;19.90;;;11.30;;
4434;SDS011;46552;52.150;8.428;2022-10-31T14:13:58;21.30;;;11.40;;
4434;SDS011;46552;52.150;8.428;2022-10-31T14:16:27;24.23;;;14.27;;
4434;SDS011;46552;52.150;8.428;2022-10-31T14:18:57;31.37;;;14.73;;
4434;SDS011;46552;52.150;8.428;2022-10-31T14:21:28;33.97;;;15.40;;
4434;SDS011;46552;52.150;8.428;2022-10-31T14:23:57;27.87;;;15.57;;
4434;SDS011;46552;52.150;8.428;2022-10-31T14:26:32;30.70;;;14.93;;
4434;SDS011;46552;52.150;8.428;2022-10-31T14:29:02;34.30;;;15.27;;
4434;SDS011;46552;52.150;8.428;2022-10-31T14:31:44;30.83;;;14.10;;
4434;SDS011;46552;52.150;8.428;2022-10-31T14:34:19;30.03;;;14.57;;
4434;SDS011;46552;52.150;8.428;2022-10-31T14:37:01;26.40;;;15.80;;
4434;SDS011;46552;52.150;8.428;2022-10-31T14:39:39;30.43;;;15.40;;
4434;SDS011;46552;52.150;8.428;2022-10-31T14:42:21;36.27;;;16.80;;
4434;SDS011;46552;52.150;8.428;2022-10-31T14:45:09;34.80;;;13.93;;
4434;SDS011;46552;52.150;8.428;2022-10-31T14:47:45;36.47;;;16.07;;
4434;SDS011;46552;52.150;8.428;2022-10-31T14:50:24;23.03;;;14.67;;
4434;SDS011;46552;52.150;8.428;2022-10-31T14:53:01;25.60;;;14.60;;
4434;SDS011;46552;52.150;8.428;2022-10-31T14:55:31;30.57;;;13.50;;
4434;SDS011;46552;52.150;8.428;2022-10-31T14:58:00;26.40;;;14.43;;
4434;SDS011;46552;52.150;8.428;2022-10-31T15:00:30;22.70;;;13.43;;